Startpagina
METAR-TAF:

METAR-TAF

Vliegvelden :

Goeree Le, Nederland

Productieplatform

breedte: 51-55-33N, lengte: 3-40-12E, hoogte: 19 m

Actueel weer

Dit bericht is 21 minuten geleden gemaakt, om 04:55 UTC
Wind 19 kt uit het westen
Temperatuur 6°C
Vochtigheid 70%
Druk 1004 hPa
Zicht 10 km of meer

METAR: EHSC 200455Z AUTO 27019KT 9999 ///////// 06/01 Q1004 W06/H15

Tijdstip: 06:16 (05:16 UTC)


TAF: ontbreekt

Waarnemingen en weersverwachtingen van meer dan 4000 vliegvelden (METAR en TAF).

De beschikbare stations zijn de gele en rode punten op de kaart.

Ga met uw muis naar het station om de naam te zien.

Klik dan om waarnemingen en weersverwachtingen te zien.

kaart wijzigen: klik op de groene knoppen met een zwart kruis om in te zoomen, op de groene knop met een streepje om uit te zoomen of op de groene pijlen voor aangrenzende kaarten.


METAR-TAF: